CT1AKV-10 Estrada Real PT current weather conditions

sailwx.info

Wind from 178 at 1 knots gusting 7

Air temperature 22.8° C
Dewpoint -10.4° C

Last reported at 2016-May-26 09:45 UTC.
Time now 2016-May-26 10:40 UTC

Location: N 39°11' W 008°44'.
View on Google Maps.

See reports from other nearby stations

  
Tides and Currents Weather Stations Pressure Air Temp Water Temp Dewpoint Dewpoint Depression Visibility Wind Speed Wind Dir Waves Ship Positions
date/time (UTC)wind fromknots sea level pressurealtimeterstation pressurevisibilityair tempwater tempwave heightnotes
2016-May-26 09:45 178 1 gusting 7 22.8
2016-May-26 09:30 200 1 gusting 6 23.3
2016-May-26 09:15 163 1 gusting 6 22.8
2016-May-26 09:00 146 1 gusting 6 22.2
2016-May-26 08:45 159 1 gusting 7 22.8
2016-May-26 08:30 147 1 gusting 6 22.2
2016-May-26 08:15 171 0 gusting 4 22.2
2016-May-26 08:00 162 0 gusting 3 21.7
2016-May-26 07:45 150 0 gusting 3 20.6
2016-May-26 07:30 20.6
2016-May-26 07:15 21.1
2016-May-26 07:00 19.4
2016-May-26 06:45 17.2
2016-May-26 06:30 14.4
2016-May-26 06:15 11.7
2016-May-26 06:00 10.6
2016-May-26 05:45 10.6
2016-May-26 05:30 10.6
2016-May-26 05:15 11.1
2016-May-26 05:00 11.1
2016-May-26 04:45 11.1
2016-May-26 04:30 11.1
2016-May-26 04:15 11.1
2016-May-26 04:00 11.7
2016-May-26 03:45 11.7
2016-May-26 03:30 11.1
2016-May-26 03:15 11.7
2016-May-26 03:00 11.7
2016-May-26 02:45 11.7
2016-May-26 02:30 11.7
2016-May-26 02:15 12.2
2016-May-26 02:00 12.2
2016-May-26 01:45 12.2
2016-May-26 01:30 12.2
2016-May-26 01:15 12.2
2016-May-26 01:00 12.2
2016-May-26 00:45 12.8
2016-May-26 00:30 12.8
2016-May-26 00:15 13.3
2016-May-26 00:00 13.9
2016-May-25 23:45 14.4
2016-May-25 23:30 274 15.0
2016-May-25 23:15 305 15.0
2016-May-25 23:00 298 15.0
2016-May-25 22:45 317 0 gusting 3 15.0
2016-May-25 22:30 270 15.6
2016-May-25 22:15 275 0 gusting 3 15.6
2016-May-25 22:00 292 0 gusting 2 15.6
2016-May-25 21:45 316 0 gusting 3 15.6
2016-May-25 21:30 310 0 gusting 3 15.6
2016-May-25 21:15 272 0 gusting 3 15.6
2016-May-25 21:00 309 1 gusting 4 16.1
2016-May-25 20:45 299 1 gusting 5 16.1
2016-May-25 20:30 303 1 gusting 4 16.7
2016-May-25 20:15 283 1 gusting 4 16.7
2016-May-25 20:00 305 1 gusting 4 17.8
2016-May-25 19:45 305 1 gusting 4 18.3
2016-May-25 19:30 327 1 gusting 5 19.4
2016-May-25 19:15 294 1 gusting 6 20.6
2016-May-25 19:00 290 1 gusting 6 21.1
2016-May-25 18:45 284 1 gusting 5 21.7
2016-May-25 18:30 302 1 gusting 6 21.7
2016-May-25 18:15 320 1 gusting 6 22.2
2016-May-25 18:00 322 2 gusting 7 20.6
2016-May-25 17:45 292 2 gusting 6 21.7
2016-May-25 17:30 207 0 gusting 4 23.3
2016-May-25 17:15 342 25.0
2016-May-25 17:00 276 1 gusting 5 23.9
2016-May-25 16:45 237 1 gusting 6 23.3
2016-May-25 16:30 217 1 gusting 6 25.0
2016-May-25 16:15 214 2 gusting 7 24.4
2016-May-25 16:00 212 3 gusting 8 27.2
2016-May-25 15:45 263 2 gusting 9 26.7
2016-May-25 15:30 224 1 gusting 6 25.6
2016-May-25 15:15 264 1 gusting 6 24.4
2016-May-25 15:00 197 2 gusting 9 26.7
2016-May-25 14:45 258 2 gusting 10 26.1
2016-May-25 14:30 242 2 gusting 8 23.3
2016-May-25 14:15 252 2 gusting 9 23.3
2016-May-25 14:00 230 1 gusting 6 26.1
2016-May-25 13:45 150 1 gusting 5 25.6
2016-May-25 13:30 111 1 gusting 6 25.0
2016-May-25 13:15 167 1 gusting 6 23.3
2016-May-25 13:00 204 1 gusting 6 22.8
2016-May-25 12:45 170 2 gusting 6 23.9
2016-May-25 12:30 234 1 gusting 6 23.9
2016-May-25 12:15 325 1 gusting 6 24.4
2016-May-25 12:00 223 2 gusting 6 26.1
2016-May-25 11:45 280 1 gusting 6 24.4
2016-May-25 11:30 195 1 gusting 6 22.2
2016-May-25 11:15 205 1 gusting 3 23.9
2016-May-25 11:00 226 1 gusting 6 21.7
2016-May-25 10:45 209 2 gusting 6 22.8
2016-May-25 10:30 154 2 gusting 10 22.8
2016-May-25 10:15 222 1 gusting 7 23.3
2016-May-25 10:00 114 1 gusting 6 23.3
2016-May-25 09:45 150 2 gusting 9 22.8
2016-May-25 09:30 197 1 gusting 5 22.8
2016-May-25 09:15 174 1 gusting 6 21.7
2016-May-25 09:00 161 1 gusting 6 20.0
2016-May-25 08:45 219 1 gusting 6 20.0
2016-May-25 08:30 134 1 gusting 6 21.1
2016-May-25 08:15 124 0 gusting 5 21.7
2016-May-25 08:00 151 18.9
2016-May-25 07:45 147 17.2
2016-May-25 07:30 147 16.7
2016-May-25 07:15 110 16.1
2016-May-25 07:00 119 15.6
2016-May-25 06:45 154 15.0
2016-May-25 06:30 156 14.4
2016-May-25 06:15 155 14.4
2016-May-25 06:00 13.9
2016-May-25 05:45 13.3
2016-May-25 05:30 219 13.3
2016-May-25 05:15 216 13.3
2016-May-25 05:00 195 13.3
2016-May-25 04:45 208 13.3
2016-May-25 04:30 185 13.3
2016-May-25 04:15 199 0 gusting 3 13.3
2016-May-25 04:00 182 13.3
2016-May-25 03:45 150 13.3
2016-May-25 03:30 189 13.3
2016-May-25 03:15 13.3
2016-May-25 03:00 198 13.3
2016-May-25 02:45 222 0 gusting 2 13.9
2016-May-25 02:30 210 13.9
2016-May-25 02:15 201 13.9
2016-May-25 02:00 177 0 gusting 3 14.4
2016-May-25 01:45 199 14.4
2016-May-25 01:30 138 14.4
2016-May-25 01:15 189 14.4
2016-May-25 01:00 212 14.4
2016-May-25 00:45 199 14.4
2016-May-25 00:30 213 0 gusting 3 14.4
2016-May-25 00:15 189 0 gusting 3 15.0
2016-May-25 00:00 230 1 gusting 4 15.0
2016-May-24 23:45 209 0 gusting 3 15.0
2016-May-24 23:30 196 14.4
2016-May-24 23:15 191 14.4
2016-May-24 23:00 166 15.0
2016-May-24 22:45 195 15.0
2016-May-24 22:30 187 0 gusting 3 15.6
2016-May-24 22:15 167 15.6
2016-May-24 22:00 222 0 gusting 3 15.6
2016-May-24 21:45 225 0 gusting 3 16.1
2016-May-24 21:30 260 1 gusting 6 16.1
2016-May-24 21:15 238 16.1
2016-May-24 21:00 241 0 gusting 3 16.1
2016-May-24 20:45 328 16.1
2016-May-24 20:30 199 16.1
2016-May-24 20:15 245 0 gusting 3 16.1
2016-May-24 20:00 212 16.7
2016-May-24 19:45 291 0 gusting 3 16.7
2016-May-24 19:30 237 0 gusting 2 17.2
2016-May-24 19:15 094 0 gusting 2 17.8
2016-May-24 19:00 119 0 gusting 3 18.3
2016-May-24 18:45 226 0 gusting 4 18.3
2016-May-24 18:30 271 0 gusting 3 18.9
2016-May-24 18:15 276 0 gusting 6 19.4
2016-May-24 18:00 248 2 gusting 6 20.0
2016-May-24 17:45 323 1 gusting 9 20.6
2016-May-24 17:30 309 2 gusting 9 20.6
2016-May-24 17:15 241 2 gusting 9 20.6
2016-May-24 17:00 278 2 gusting 8 21.1
2016-May-24 16:45 251 2 gusting 8 20.6
2016-May-24 16:30 189 2 gusting 9 21.1
2016-May-24 16:15 341 2 gusting 9 21.7
2016-May-24 16:00 267 2 gusting 9 22.2
2016-May-24 15:45 273 2 gusting 9 22.8
2016-May-24 15:30 289 2 gusting 7 22.8
2016-May-24 15:15 325 3 gusting 10 22.8
2016-May-24 15:00 216 2 gusting 10 24.4
2016-May-24 14:45 283 3 gusting 10 25.6
2016-May-24 14:30 256 2 gusting 9 26.7
2016-May-24 14:15 172 3 gusting 9 26.1
2016-May-24 14:00 224 2 gusting 8 25.0
2016-May-24 13:45 312 2 gusting 9 25.0
2016-May-24 13:30 249 3 gusting 10 25.6
2016-May-24 13:15 254 3 gusting 10 24.4
2016-May-24 13:00 237 2 gusting 10 25.6
2016-May-24 12:45 279 2 gusting 9 25.0
2016-May-24 12:30 254 3 gusting 9 25.0
2016-May-24 12:15 193 2 gusting 10 25.0
2016-May-24 12:00 209 3 gusting 11 23.9
2016-May-24 11:45 261 2 gusting 7 23.3
2016-May-24 11:30 239 2 gusting 9 22.8
2016-May-24 11:15 190 2 gusting 9 23.3
2016-May-24 11:00 214 1 gusting 5 22.8
2016-May-24 10:45 203 1 gusting 6 21.1
2016-May-24 10:30 282 0 gusting 4 20.0